El Paso, TX (88556)

9:51 PM MDT on August 28, 2016 (GMT -0600)
Shock | | Change Station

Elev 3924 ft 31.76 °N, 106.33 °W | Updated 3 minutes ago

Scattered Clouds
Scattered Clouds
76.3 °F
Feels Like 78 °F
N
0.0
Wind Variable Wind from SSW

Today
High -- | Low -- °F
--% Chance of Precip.
Yesterday
High -- | Low -- °F
Precip. -- in
Pressure 29.88 in
Visibility 10.0 miles
Clouds Scattered Clouds 10000 ft
Scattered Clouds 16000 ft
Scattered Clouds 25000 ft
Heat Index 78 °F
Dew Point 56 °F
Humidity 50%
Rainfall 0.00 in
Snow Depth Not available.
6:38 AM 7:33 PM
Waning Crescent, 11% visible
METAR KELP 290251Z 36010KT 10SM SCT100 SCT160 SCT250 26/14 A3009 RMK AO2 LTG DSNT SE AND S SLP119 OCNL LTGICCCCG DSNT E-S CB DSNT E-S SHRA DSNT SE-S 60000 T02610144 53021
Pressure 29.88 in
Visibility 10.0 miles
Clouds Scattered Clouds 10000 ft
Scattered Clouds 16000 ft
Scattered Clouds 25000 ft
Heat Index 78 °F
Dew Point 56 °F
Humidity 50%
Rainfall 0.00 in
Snow Depth Not available.
6:38 AM 7:33 PM
Waning Crescent, 11% visible
METAR KELP 290251Z 36010KT 10SM SCT100 SCT160 SCT250 26/14 A3009 RMK AO2 LTG DSNT SE AND S SLP119 OCNL LTGICCCCG DSNT E-S CB DSNT E-S SHRA DSNT SE-S 60000 T02610144 53021

10-Day Weather Forecast

Almanac

Astronomy

Aug. 28, 2016 Rise Set
Actual Time
Civil Twilight
Nautical Twilight
Astronomical Twilight
Moon
Length of Visible Light
Length of Day
Tomorrow will be .
, % of the Moon is Illuminated

Today's Extremes

State Highs State Lows

Community

WunderPhotos

Upload Photos

1,935,783 photos uploaded!

WunderBlog® & News

Nearby

Air Quality

  Air Quality AQ Index Pollutant
Not available.

Snow Depth

Station Depth Elevation

Earthquake Activity

City Distance Mag. Time & Date
Minimum magnitude displayed is 2.5.

Coastal Water Temperatures

Place Temperature

Stations

Nearby Weather Stations

Station Location Temp. Windchill Dew Point Humidity Wind Precip. Elev Updated Type
                   

Watches & Warnings

There are currently no watches in effect.